sensor_id;sensor_type;location;lat;lon;timestamp;P1;durP1;ratioP1;P2;durP2;ratioP2
1446;SDS011;717;51.522;7.266;2023-03-14T00:02:18;4.07;;;1.15;;
1446;SDS011;717;51.522;7.266;2023-03-14T00:04:47;4.88;;;1.08;;
1446;SDS011;717;51.522;7.266;2023-03-14T00:07:16;4.32;;;1.30;;
1446;SDS011;717;51.522;7.266;2023-03-14T00:09:44;2.58;;;1.10;;
1446;SDS011;717;51.522;7.266;2023-03-14T00:12:13;3.17;;;1.15;;
1446;SDS011;717;51.522;7.266;2023-03-14T00:14:44;4.80;;;1.23;;
1446;SDS011;717;51.522;7.266;2023-03-14T00:17:13;3.40;;;1.60;;
1446;SDS011;717;51.522;7.266;2023-03-14T00:19:42;3.42;;;1.38;;
1446;SDS011;717;51.522;7.266;2023-03-14T00:22:10;4.28;;;1.00;;
1446;SDS011;717;51.522;7.266;2023-03-14T00:24:39;2.65;;;0.70;;
1446;SDS011;717;51.522;7.266;2023-03-14T00:27:07;3.17;;;1.00;;
1446;SDS011;717;51.522;7.266;2023-03-14T00:29:36;5.15;;;1.00;;
1446;SDS011;717;51.522;7.266;2023-03-14T00:32:07;4.28;;;1.17;;
1446;SDS011;717;51.522;7.266;2023-03-14T00:34:36;6.50;;;1.30;;
1446;SDS011;717;51.522;7.266;2023-03-14T00:37:04;5.72;;;1.10;;
1446;SDS011;717;51.522;7.266;2023-03-14T00:39:33;4.22;;;1.00;;
1446;SDS011;717;51.522;7.266;2023-03-14T00:42:02;4.00;;;1.08;;
1446;SDS011;717;51.522;7.266;2023-03-14T00:44:31;4.47;;;1.52;;
1446;SDS011;717;51.522;7.266;2023-03-14T00:46:59;3.75;;;1.00;;
1446;SDS011;717;51.522;7.266;2023-03-14T00:49:31;4.47;;;1.08;;
1446;SDS011;717;51.522;7.266;2023-03-14T00:51:59;3.42;;;0.90;;
1446;SDS011;717;51.522;7.266;2023-03-14T00:54:28;3.88;;;1.10;;
1446;SDS011;717;51.522;7.266;2023-03-14T00:56:57;3.97;;;0.65;;
1446;SDS011;717;51.522;7.266;2023-03-14T00:59:26;3.38;;;1.15;;
1446;SDS011;717;51.522;7.266;2023-03-14T01:01:54;5.30;;;1.20;;
1446;SDS011;717;51.522;7.266;2023-03-14T01:04:23;5.25;;;1.35;;
1446;SDS011;717;51.522;7.266;2023-03-14T01:06:54;5.22;;;1.08;;
1446;SDS011;717;51.522;7.266;2023-03-14T01:09:23;3.55;;;0.70;;
1446;SDS011;717;51.522;7.266;2023-03-14T01:11:51;4.63;;;1.40;;
1446;SDS011;717;51.522;7.266;2023-03-14T01:14:20;3.28;;;0.95;;
1446;SDS011;717;51.522;7.266;2023-03-14T01:16:49;2.00;;;0.60;;
1446;SDS011;717;51.522;7.266;2023-03-14T01:19:17;1.35;;;0.47;;
1446;SDS011;717;51.522;7.266;2023-03-14T01:21:46;0.77;;;0.40;;
1446;SDS011;717;51.522;7.266;2023-03-14T01:24:17;0.50;;;0.35;;
1446;SDS011;717;51.522;7.266;2023-03-14T01:26:46;2.42;;;0.50;;
1446;SDS011;717;51.522;7.266;2023-03-14T01:29:14;1.80;;;0.32;;
1446;SDS011;717;51.522;7.266;2023-03-14T01:31:43;1.52;;;0.50;;
1446;SDS011;717;51.522;7.266;2023-03-14T01:34:12;1.88;;;0.50;;
1446;SDS011;717;51.522;7.266;2023-03-14T01:36:41;2.55;;;0.30;;
1446;SDS011;717;51.522;7.266;2023-03-14T01:39:09;1.80;;;0.50;;
1446;SDS011;717;51.522;7.266;2023-03-14T01:41:40;1.23;;;0.50;;
1446;SDS011;717;51.522;7.266;2023-03-14T01:44:09;3.30;;;0.93;;
1446;SDS011;717;51.522;7.266;2023-03-14T01:46:39;3.40;;;0.63;;
1446;SDS011;717;51.522;7.266;2023-03-14T01:49:11;2.65;;;0.50;;
1446;SDS011;717;51.522;7.266;2023-03-14T01:51:45;4.97;;;0.63;;
1446;SDS011;717;51.522;7.266;2023-03-14T01:54:19;3.17;;;0.63;;
1446;SDS011;717;51.522;7.266;2023-03-14T01:56:54;3.15;;;0.70;;
1446;SDS011;717;51.522;7.266;2023-03-14T01:59:25;4.47;;;0.70;;
1446;SDS011;717;51.522;7.266;2023-03-14T02:01:55;5.50;;;0.70;;
1446;SDS011;717;51.522;7.266;2023-03-14T02:04:24;1.55;;;0.50;;
1446;SDS011;717;51.522;7.266;2023-03-14T02:06:57;4.88;;;0.98;;
1446;SDS011;717;51.522;7.266;2023-03-14T02:09:30;6.38;;;0.65;;
1446;SDS011;717;51.522;7.266;2023-03-14T02:12:02;5.28;;;0.73;;
1446;SDS011;717;51.522;7.266;2023-03-14T02:14:32;2.95;;;0.70;;
1446;SDS011;717;51.522;7.266;2023-03-14T02:17:03;5.28;;;0.95;;
1446;SDS011;717;51.522;7.266;2023-03-14T02:19:36;3.63;;;0.77;;
1446;SDS011;717;51.522;7.266;2023-03-14T02:22:13;4.50;;;0.80;;
1446;SDS011;717;51.522;7.266;2023-03-14T02:24:44;4.20;;;0.80;;
1446;SDS011;717;51.522;7.266;2023-03-14T02:27:20;2.92;;;0.80;;
1446;SDS011;717;51.522;7.266;2023-03-14T02:29:51;3.92;;;0.70;;
1446;SDS011;717;51.522;7.266;2023-03-14T02:32:21;3.30;;;0.80;;
1446;SDS011;717;51.522;7.266;2023-03-14T02:34:52;6.50;;;0.73;;
1446;SDS011;717;51.522;7.266;2023-03-14T02:37:25;5.80;;;0.68;;
1446;SDS011;717;51.522;7.266;2023-03-14T02:39:58;5.45;;;0.73;;
1446;SDS011;717;51.522;7.266;2023-03-14T02:42:29;6.05;;;1.35;;
1446;SDS011;717;51.522;7.266;2023-03-14T02:44:59;4.32;;;0.90;;
1446;SDS011;717;51.522;7.266;2023-03-14T02:47:52;3.28;;;0.70;;
1446;SDS011;717;51.522;7.266;2023-03-14T02:50:26;9.18;;;1.25;;
1446;SDS011;717;51.522;7.266;2023-03-14T02:52:59;7.93;;;1.10;;
1446;SDS011;717;51.522;7.266;2023-03-14T02:55:28;9.07;;;0.98;;
1446;SDS011;717;51.522;7.266;2023-03-14T02:57:59;6.95;;;1.30;;
1446;SDS011;717;51.522;7.266;2023-03-14T03:00:27;5.57;;;1.13;;
1446;SDS011;717;51.522;7.266;2023-03-14T03:02:56;7.25;;;1.17;;
1446;SDS011;717;51.522;7.266;2023-03-14T03:05:25;7.47;;;1.20;;
1446;SDS011;717;51.522;7.266;2023-03-14T03:07:54;3.58;;;0.75;;
1446;SDS011;717;51.522;7.266;2023-03-14T03:10:23;7.50;;;0.93;;
1446;SDS011;717;51.522;7.266;2023-03-14T03:12:51;4.55;;;1.15;;
1446;SDS011;717;51.522;7.266;2023-03-14T03:15:23;5.95;;;1.33;;
1446;SDS011;717;51.522;7.266;2023-03-14T03:17:52;7.65;;;1.10;;
1446;SDS011;717;51.522;7.266;2023-03-14T03:20:20;7.15;;;1.30;;
1446;SDS011;717;51.522;7.266;2023-03-14T03:22:49;8.93;;;1.23;;
1446;SDS011;717;51.522;7.266;2023-03-14T03:25:17;9.18;;;1.20;;
1446;SDS011;717;51.522;7.266;2023-03-14T03:27:46;5.07;;;1.15;;
1446;SDS011;717;51.522;7.266;2023-03-14T03:30:15;6.03;;;1.25;;
1446;SDS011;717;51.522;7.266;2023-03-14T03:32:46;7.78;;;1.60;;
1446;SDS011;717;51.522;7.266;2023-03-14T03:35:15;5.10;;;1.05;;
1446;SDS011;717;51.522;7.266;2023-03-14T03:37:44;6.32;;;1.20;;
1446;SDS011;717;51.522;7.266;2023-03-14T03:40:12;7.00;;;1.10;;
1446;SDS011;717;51.522;7.266;2023-03-14T03:42:41;5.20;;;1.00;;
1446;SDS011;717;51.522;7.266;2023-03-14T03:45:10;3.90;;;1.63;;
1446;SDS011;717;51.522;7.266;2023-03-14T03:47:38;8.23;;;1.40;;
1446;SDS011;717;51.522;7.266;2023-03-14T03:50:10;5.93;;;0.93;;
1446;SDS011;717;51.522;7.266;2023-03-14T03:52:38;4.57;;;1.20;;
1446;SDS011;717;51.522;7.266;2023-03-14T03:55:07;4.85;;;1.00;;
1446;SDS011;717;51.522;7.266;2023-03-14T03:57:36;7.75;;;1.15;;
1446;SDS011;717;51.522;7.266;2023-03-14T04:00:06;4.72;;;1.17;;
1446;SDS011;717;51.522;7.266;2023-03-14T04:02:37;5.38;;;0.93;;
1446;SDS011;717;51.522;7.266;2023-03-14T04:05:06;7.05;;;1.27;;
1446;SDS011;717;51.522;7.266;2023-03-14T04:07:38;7.90;;;1.50;;
1446;SDS011;717;51.522;7.266;2023-03-14T04:10:07;2.55;;;1.27;;
1446;SDS011;717;51.522;7.266;2023-03-14T04:12:37;7.20;;;1.20;;
1446;SDS011;717;51.522;7.266;2023-03-14T04:15:06;4.82;;;0.90;;
1446;SDS011;717;51.522;7.266;2023-03-14T04:17:35;4.70;;;0.82;;
1446;SDS011;717;51.522;7.266;2023-03-14T04:20:05;4.38;;;0.65;;
1446;SDS011;717;51.522;7.266;2023-03-14T04:22:38;2.63;;;0.93;;
1446;SDS011;717;51.522;7.266;2023-03-14T04:25:07;4.03;;;0.90;;
1446;SDS011;717;51.522;7.266;2023-03-14T04:27:36;4.45;;;0.90;;
1446;SDS011;717;51.522;7.266;2023-03-14T04:30:05;3.67;;;0.70;;
1446;SDS011;717;51.522;7.266;2023-03-14T04:32:35;2.28;;;0.60;;
1446;SDS011;717;51.522;7.266;2023-03-14T04:35:06;2.67;;;0.77;;
1446;SDS011;717;51.522;7.266;2023-03-14T04:37:38;2.83;;;0.60;;
1446;SDS011;717;51.522;7.266;2023-03-14T04:40:08;2.15;;;0.55;;
1446;SDS011;717;51.522;7.266;2023-03-14T04:42:38;2.58;;;0.30;;
1446;SDS011;717;51.522;7.266;2023-03-14T04:45:07;1.23;;;0.20;;
1446;SDS011;717;51.522;7.266;2023-03-14T04:47:36;3.25;;;0.60;;
1446;SDS011;717;51.522;7.266;2023-03-14T04:50:05;2.85;;;0.30;;
1446;SDS011;717;51.522;7.266;2023-03-14T04:52:34;0.52;;;0.40;;
1446;SDS011;717;51.522;7.266;2023-03-14T04:55:06;1.38;;;0.30;;
1446;SDS011;717;51.522;7.266;2023-03-14T04:57:35;1.95;;;0.32;;
1446;SDS011;717;51.522;7.266;2023-03-14T05:00:04;1.77;;;0.57;;
1446;SDS011;717;51.522;7.266;2023-03-14T05:02:34;1.88;;;0.20;;
1446;SDS011;717;51.522;7.266;2023-03-14T05:05:03;0.77;;;0.30;;
1446;SDS011;717;51.522;7.266;2023-03-14T05:07:32;0.82;;;0.20;;
1446;SDS011;717;51.522;7.266;2023-03-14T05:10:04;1.73;;;0.28;;
1446;SDS011;717;51.522;7.266;2023-03-14T05:12:33;2.03;;;0.28;;
1446;SDS011;717;51.522;7.266;2023-03-14T05:15:02;0.10;;;0.10;;
1446;SDS011;717;51.522;7.266;2023-03-14T05:17:31;0.95;;;0.10;;
1446;SDS011;717;51.522;7.266;2023-03-14T05:20:00;1.05;;;0.20;;
1446;SDS011;717;51.522;7.266;2023-03-14T05:22:32;2.42;;;0.10;;
1446;SDS011;717;51.522;7.266;2023-03-14T05:25:04;0.22;;;0.10;;
1446;SDS011;717;51.522;7.266;2023-03-14T05:27:33;0.30;;;0.10;;
1446;SDS011;717;51.522;7.266;2023-03-14T05:30:02;1.55;;;0.20;;
1446;SDS011;717;51.522;7.266;2023-03-14T05:32:31;0.80;;;0.10;;
1446;SDS011;717;51.522;7.266;2023-03-14T05:35:00;0.52;;;0.20;;
1446;SDS011;717;51.522;7.266;2023-03-14T05:37:28;1.48;;;0.30;;
1446;SDS011;717;51.522;7.266;2023-03-14T05:39:57;1.52;;;0.20;;
1446;SDS011;717;51.522;7.266;2023-03-14T05:42:28;1.08;;;0.20;;
1446;SDS011;717;51.522;7.266;2023-03-14T05:44:57;0.93;;;0.10;;
1446;SDS011;717;51.522;7.266;2023-03-14T05:47:25;0.98;;;0.22;;
1446;SDS011;717;51.522;7.266;2023-03-14T05:49:54;1.65;;;0.30;;
1446;SDS011;717;51.522;7.266;2023-03-14T05:52:23;2.17;;;0.40;;
1446;SDS011;717;51.522;7.266;2023-03-14T05:54:51;1.63;;;0.30;;
1446;SDS011;717;51.522;7.266;2023-03-14T05:57:20;0.30;;;0.30;;
1446;SDS011;717;51.522;7.266;2023-03-14T05:59:51;2.38;;;0.30;;
1446;SDS011;717;51.522;7.266;2023-03-14T06:02:20;0.65;;;0.50;;
1446;SDS011;717;51.522;7.266;2023-03-14T06:04:48;0.60;;;0.60;;
1446;SDS011;717;51.522;7.266;2023-03-14T06:07:17;0.70;;;0.70;;
1446;SDS011;717;51.522;7.266;2023-03-14T06:09:45;1.17;;;1.00;;
1446;SDS011;717;51.522;7.266;2023-03-14T06:12:14;2.17;;;1.35;;
1446;SDS011;717;51.522;7.266;2023-03-14T06:14:43;2.22;;;1.38;;
1446;SDS011;717;51.522;7.266;2023-03-14T06:17:14;3.45;;;1.20;;
1446;SDS011;717;51.522;7.266;2023-03-14T06:19:43;3.95;;;1.13;;
1446;SDS011;717;51.522;7.266;2023-03-14T06:22:11;2.97;;;1.02;;
1446;SDS011;717;51.522;7.266;2023-03-14T06:24:40;3.13;;;0.82;;
1446;SDS011;717;51.522;7.266;2023-03-14T06:27:09;3.65;;;1.10;;
1446;SDS011;717;51.522;7.266;2023-03-14T06:29:37;4.57;;;1.20;;
1446;SDS011;717;51.522;7.266;2023-03-14T06:32:06;3.40;;;1.08;;
1446;SDS011;717;51.522;7.266;2023-03-14T06:34:37;5.05;;;1.08;;
1446;SDS011;717;51.522;7.266;2023-03-14T06:37:06;2.92;;;1.30;;
1446;SDS011;717;51.522;7.266;2023-03-14T06:39:34;2.58;;;1.15;;
1446;SDS011;717;51.522;7.266;2023-03-14T06:42:03;4.43;;;1.80;;
1446;SDS011;717;51.522;7.266;2023-03-14T06:44:32;3.92;;;1.40;;
1446;SDS011;717;51.522;7.266;2023-03-14T06:47:01;2.15;;;1.27;;
1446;SDS011;717;51.522;7.266;2023-03-14T06:49:30;3.25;;;1.70;;
1446;SDS011;717;51.522;7.266;2023-03-14T06:52:01;1.73;;;1.00;;
1446;SDS011;717;51.522;7.266;2023-03-14T06:54:30;1.38;;;1.10;;
1446;SDS011;717;51.522;7.266;2023-03-14T06:56:59;3.25;;;1.15;;
1446;SDS011;717;51.522;7.266;2023-03-14T06:59:27;3.78;;;1.15;;
1446;SDS011;717;51.522;7.266;2023-03-14T07:01:56;3.53;;;1.38;;
1446;SDS011;717;51.522;7.266;2023-03-14T07:04:25;3.72;;;1.20;;
1446;SDS011;717;51.522;7.266;2023-03-14T07:06:53;3.80;;;1.30;;
1446;SDS011;717;51.522;7.266;2023-03-14T07:09:25;1.08;;;1.00;;
1446;SDS011;717;51.522;7.266;2023-03-14T07:11:53;4.32;;;1.60;;
1446;SDS011;717;51.522;7.266;2023-03-14T07:14:22;3.08;;;1.27;;
1446;SDS011;717;51.522;7.266;2023-03-14T07:16:50;1.95;;;1.08;;
1446;SDS011;717;51.522;7.266;2023-03-14T07:19:19;1.55;;;1.00;;
1446;SDS011;717;51.522;7.266;2023-03-14T07:21:48;1.90;;;1.10;;
1446;SDS011;717;51.522;7.266;2023-03-14T07:24:16;2.70;;;1.20;;
1446;SDS011;717;51.522;7.266;2023-03-14T07:26:48;3.17;;;1.40;;
1446;SDS011;717;51.522;7.266;2023-03-14T07:29:16;1.55;;;0.85;;
1446;SDS011;717;51.522;7.266;2023-03-14T07:31:45;2.05;;;0.95;;
1446;SDS011;717;51.522;7.266;2023-03-14T07:34:13;0.82;;;0.80;;
1446;SDS011;717;51.522;7.266;2023-03-14T07:36:42;1.60;;;1.10;;
1446;SDS011;717;51.522;7.266;2023-03-14T07:39:11;1.50;;;1.30;;
1446;SDS011;717;51.522;7.266;2023-03-14T07:41:40;2.88;;;0.90;;
1446;SDS011;717;51.522;7.266;2023-03-14T07:44:11;2.03;;;0.93;;
1446;SDS011;717;51.522;7.266;2023-03-14T07:46:40;1.05;;;0.85;;
1446;SDS011;717;51.522;7.266;2023-03-14T07:49:08;1.45;;;0.85;;
1446;SDS011;717;51.522;7.266;2023-03-14T07:51:37;1.85;;;0.93;;
1446;SDS011;717;51.522;7.266;2023-03-14T07:54:05;1.70;;;1.00;;
1446;SDS011;717;51.522;7.266;2023-03-14T07:56:34;1.02;;;0.82;;
1446;SDS011;717;51.522;7.266;2023-03-14T07:59:03;1.38;;;1.00;;
1446;SDS011;717;51.522;7.266;2023-03-14T08:01:34;1.40;;;0.95;;
1446;SDS011;717;51.522;7.266;2023-03-14T08:04:03;1.35;;;1.08;;
1446;SDS011;717;51.522;7.266;2023-03-14T08:06:32;1.30;;;0.80;;
1446;SDS011;717;51.522;7.266;2023-03-14T08:09:00;1.80;;;1.25;;
1446;SDS011;717;51.522;7.266;2023-03-14T08:11:29;1.20;;;1.10;;
1446;SDS011;717;51.522;7.266;2023-03-14T08:13:58;2.20;;;1.00;;
1446;SDS011;717;51.522;7.266;2023-03-14T08:16:27;1.52;;;1.30;;
1446;SDS011;717;51.522;7.266;2023-03-14T08:18:58;1.48;;;1.30;;
1446;SDS011;717;51.522;7.266;2023-03-14T08:21:27;1.40;;;1.30;;
1446;SDS011;717;51.522;7.266;2023-03-14T08:23:56;1.45;;;1.35;;
1446;SDS011;717;51.522;7.266;2023-03-14T08:26:25;1.30;;;1.20;;
1446;SDS011;717;51.522;7.266;2023-03-14T08:28:54;1.30;;;1.15;;
1446;SDS011;717;51.522;7.266;2023-03-14T08:31:23;2.17;;;1.20;;
1446;SDS011;717;51.522;7.266;2023-03-14T08:33:52;1.63;;;1.02;;
1446;SDS011;717;51.522;7.266;2023-03-14T08:36:23;1.58;;;1.25;;
1446;SDS011;717;51.522;7.266;2023-03-14T08:38:52;2.17;;;1.13;;
1446;SDS011;717;51.522;7.266;2023-03-14T08:41:20;1.30;;;1.13;;
1446;SDS011;717;51.522;7.266;2023-03-14T08:43:49;1.10;;;1.00;;
1446;SDS011;717;51.522;7.266;2023-03-14T08:46:18;1.42;;;1.27;;
1446;SDS011;717;51.522;7.266;2023-03-14T08:48:46;1.73;;;1.48;;
1446;SDS011;717;51.522;7.266;2023-03-14T08:51:15;1.55;;;1.40;;
1446;SDS011;717;51.522;7.266;2023-03-14T08:53:47;1.83;;;1.70;;
1446;SDS011;717;51.522;7.266;2023-03-14T08:56:15;2.50;;;1.70;;
1446;SDS011;717;51.522;7.266;2023-03-14T08:58:44;2.50;;;2.30;;
1446;SDS011;717;51.522;7.266;2023-03-14T09:01:13;1.98;;;1.83;;
1446;SDS011;717;51.522;7.266;2023-03-14T09:03:41;2.17;;;1.90;;
1446;SDS011;717;51.522;7.266;2023-03-14T09:06:11;2.22;;;2.03;;
1446;SDS011;717;51.522;7.266;2023-03-14T09:08:43;3.63;;;1.60;;
1446;SDS011;717;51.522;7.266;2023-03-14T09:11:14;3.08;;;1.40;;
1446;SDS011;717;51.522;7.266;2023-03-14T09:13:43;1.38;;;1.27;;
1446;SDS011;717;51.522;7.266;2023-03-14T09:16:13;2.05;;;1.67;;
1446;SDS011;717;51.522;7.266;2023-03-14T09:18:42;1.58;;;1.23;;
1446;SDS011;717;51.522;7.266;2023-03-14T09:21:11;4.13;;;1.60;;
1446;SDS011;717;51.522;7.266;2023-03-14T09:23:40;2.70;;;1.27;;
1446;SDS011;717;51.522;7.266;2023-03-14T09:26:10;2.20;;;1.60;;
1446;SDS011;717;51.522;7.266;2023-03-14T09:28:42;1.92;;;1.40;;
1446;SDS011;717;51.522;7.266;2023-03-14T09:31:11;3.33;;;1.55;;
1446;SDS011;717;51.522;7.266;2023-03-14T09:33:40;2.97;;;1.95;;
1446;SDS011;717;51.522;7.266;2023-03-14T09:36:09;3.08;;;2.05;;
1446;SDS011;717;51.522;7.266;2023-03-14T09:38:38;4.18;;;2.03;;
1446;SDS011;717;51.522;7.266;2023-03-14T09:41:15;3.28;;;0.75;;
1446;SDS011;717;51.522;7.266;2023-03-14T09:43:46;0.80;;;0.38;;
1446;SDS011;717;51.522;7.266;2023-03-14T09:46:17;0.85;;;0.50;;
1446;SDS011;717;51.522;7.266;2023-03-14T09:48:46;0.30;;;0.30;;
1446;SDS011;717;51.522;7.266;2023-03-14T09:51:16;0.20;;;0.20;;
1446;SDS011;717;51.522;7.266;2023-03-14T09:53:49;0.65;;;0.30;;
1446;SDS011;717;51.522;7.266;2023-03-14T09:56:21;0.40;;;0.30;;
1446;SDS011;717;51.522;7.266;2023-03-14T09:58:54;0.60;;;0.40;;
1446;SDS011;717;51.522;7.266;2023-03-14T10:01:25;0.50;;;0.30;;
1446;SDS011;717;51.522;7.266;2023-03-14T10:03:57;0.63;;;0.45;;
1446;SDS011;717;51.522;7.266;2023-03-14T10:06:29;0.63;;;0.40;;
1446;SDS011;717;51.522;7.266;2023-03-14T10:08:59;1.27;;;0.50;;
1446;SDS011;717;51.522;7.266;2023-03-14T10:11:33;0.63;;;0.47;;
1446;SDS011;717;51.522;7.266;2023-03-14T10:14:03;0.68;;;0.60;;
1446;SDS011;717;51.522;7.266;2023-03-14T10:16:34;1.27;;;0.50;;
1446;SDS011;717;51.522;7.266;2023-03-14T10:19:05;0.50;;;0.40;;
1446;SDS011;717;51.522;7.266;2023-03-14T10:21:36;0.50;;;0.50;;
1446;SDS011;717;51.522;7.266;2023-03-14T10:24:10;1.35;;;0.73;;
1446;SDS011;717;51.522;7.266;2023-03-14T10:26:50;1.00;;;0.68;;
1446;SDS011;717;51.522;7.266;2023-03-14T10:29:21;1.25;;;0.75;;
1446;SDS011;717;51.522;7.266;2023-03-14T10:31:51;1.55;;;1.08;;
1446;SDS011;717;51.522;7.266;2023-03-14T10:34:22;0.98;;;0.60;;
1446;SDS011;717;51.522;7.266;2023-03-14T10:36:53;0.60;;;0.50;;
1446;SDS011;717;51.522;7.266;2023-03-14T10:39:28;1.23;;;0.50;;
1446;SDS011;717;51.522;7.266;2023-03-14T10:42:14;1.92;;;0.60;;
1446;SDS011;717;51.522;7.266;2023-03-14T10:44:48;2.53;;;0.55;;
1446;SDS011;717;51.522;7.266;2023-03-14T10:47:22;1.15;;;0.70;;
1446;SDS011;717;51.522;7.266;2023-03-14T10:49:53;0.65;;;0.65;;
1446;SDS011;717;51.522;7.266;2023-03-14T10:52:23;0.80;;;0.60;;
1446;SDS011;717;51.522;7.266;2023-03-14T10:54:54;1.08;;;0.60;;
1446;SDS011;717;51.522;7.266;2023-03-14T10:57:26;1.55;;;0.55;;
1446;SDS011;717;51.522;7.266;2023-03-14T10:59:55;2.00;;;0.82;;
1446;SDS011;717;51.522;7.266;2023-03-14T11:02:31;2.65;;;0.60;;
1446;SDS011;717;51.522;7.266;2023-03-14T11:05:14;2.95;;;0.57;;
1446;SDS011;717;51.522;7.266;2023-03-14T11:07:50;1.08;;;0.55;;
1446;SDS011;717;51.522;7.266;2023-03-14T11:10:23;3.25;;;0.60;;
1446;SDS011;717;51.522;7.266;2023-03-14T11:13:04;2.30;;;0.70;;
1446;SDS011;717;51.522;7.266;2023-03-14T11:15:44;1.67;;;0.50;;
1446;SDS011;717;51.522;7.266;2023-03-14T11:18:22;1.10;;;0.65;;
1446;SDS011;717;51.522;7.266;2023-03-14T11:21:15;1.70;;;1.00;;
1446;SDS011;717;51.522;7.266;2023-03-14T11:23:51;2.00;;;1.80;;
1446;SDS011;717;51.522;7.266;2023-03-14T11:26:30;2.33;;;1.70;;
1446;SDS011;717;51.522;7.266;2023-03-14T11:29:12;2.63;;;1.40;;
1446;SDS011;717;51.522;7.266;2023-03-14T11:31:48;1.97;;;1.37;;
1446;SDS011;717;51.522;7.266;2023-03-14T11:34:20;1.77;;;0.95;;
1446;SDS011;717;51.522;7.266;2023-03-14T11:36:55;1.70;;;1.60;;
1446;SDS011;717;51.522;7.266;2023-03-14T11:39:29;3.58;;;1.50;;
1446;SDS011;717;51.522;7.266;2023-03-14T11:42:07;1.40;;;1.30;;
1446;SDS011;717;51.522;7.266;2023-03-14T11:44:43;0.80;;;0.80;;
1446;SDS011;717;51.522;7.266;2023-03-14T11:47:17;2.72;;;0.93;;
1446;SDS011;717;51.522;7.266;2023-03-14T11:49:48;1.90;;;1.13;;
1446;SDS011;717;51.522;7.266;2023-03-14T11:52:22;3.20;;;1.20;;
1446;SDS011;717;51.522;7.266;2023-03-14T11:54:56;3.83;;;2.10;;
1446;SDS011;717;51.522;7.266;2023-03-14T11:57:28;4.93;;;1.97;;
1446;SDS011;717;51.522;7.266;2023-03-14T12:00:00;3.53;;;1.20;;
1446;SDS011;717;51.522;7.266;2023-03-14T12:02:33;1.73;;;0.80;;
1446;SDS011;717;51.522;7.266;2023-03-14T12:08:27;1.30;;;0.75;;
1446;SDS011;717;51.522;7.266;2023-03-14T12:11:14;1.05;;;0.77;;
1446;SDS011;717;51.522;7.266;2023-03-14T12:13:47;2.13;;;0.98;;
1446;SDS011;717;51.522;7.266;2023-03-14T12:16:30;2.00;;;0.90;;
1446;SDS011;717;51.522;7.266;2023-03-14T12:19:13;1.20;;;0.80;;
1446;SDS011;717;51.522;7.266;2023-03-14T12:24:51;1.65;;;0.60;;
1446;SDS011;717;51.522;7.266;2023-03-14T12:30:15;2.10;;;0.68;;
1446;SDS011;717;51.522;7.266;2023-03-14T12:35:48;3.27;;;1.03;;
1446;SDS011;717;51.522;7.266;2023-03-14T12:38:21;2.10;;;0.80;;
1446;SDS011;717;51.522;7.266;2023-03-14T12:40:57;1.95;;;0.88;;
1446;SDS011;717;51.522;7.266;2023-03-14T12:43:30;1.90;;;0.80;;
1446;SDS011;717;51.522;7.266;2023-03-14T12:46:14;2.40;;;0.80;;
1446;SDS011;717;51.522;7.266;2023-03-14T12:48:50;2.47;;;1.05;;
1446;SDS011;717;51.522;7.266;2023-03-14T12:51:28;2.47;;;0.70;;
1446;SDS011;717;51.522;7.266;2023-03-14T12:54:14;2.22;;;0.60;;
1446;SDS011;717;51.522;7.266;2023-03-14T12:57:00;2.70;;;0.88;;
1446;SDS011;717;51.522;7.266;2023-03-14T12:59:36;3.95;;;0.80;;
1446;SDS011;717;51.522;7.266;2023-03-14T13:02:17;5.10;;;0.80;;
1446;SDS011;717;51.522;7.266;2023-03-14T13:04:59;4.57;;;0.93;;
1446;SDS011;717;51.522;7.266;2023-03-14T13:07:31;3.00;;;0.60;;
1446;SDS011;717;51.522;7.266;2023-03-14T13:10:03;3.30;;;0.68;;
1446;SDS011;717;51.522;7.266;2023-03-14T13:12:46;8.40;;;1.02;;
1446;SDS011;717;51.522;7.266;2023-03-14T13:15:19;6.68;;;1.10;;
1446;SDS011;717;51.522;7.266;2023-03-14T13:17:54;4.63;;;0.70;;
1446;SDS011;717;51.522;7.266;2023-03-14T13:20:31;5.53;;;1.00;;
1446;SDS011;717;51.522;7.266;2023-03-14T13:23:03;5.37;;;0.80;;
1446;SDS011;717;51.522;7.266;2023-03-14T13:25:32;6.18;;;1.20;;
1446;SDS011;717;51.522;7.266;2023-03-14T13:28:02;5.63;;;1.25;;
1446;SDS011;717;51.522;7.266;2023-03-14T13:30:39;8.10;;;1.15;;
1446;SDS011;717;51.522;7.266;2023-03-14T13:33:12;5.03;;;0.93;;
1446;SDS011;717;51.522;7.266;2023-03-14T13:35:46;4.90;;;1.20;;
1446;SDS011;717;51.522;7.266;2023-03-14T13:38:17;5.82;;;1.40;;
1446;SDS011;717;51.522;7.266;2023-03-14T13:40:48;10.37;;;1.80;;
1446;SDS011;717;51.522;7.266;2023-03-14T13:43:18;7.05;;;1.30;;
1446;SDS011;717;51.522;7.266;2023-03-14T13:45:52;7.95;;;1.55;;
1446;SDS011;717;51.522;7.266;2023-03-14T13:48:25;10.38;;;1.83;;
1446;SDS011;717;51.522;7.266;2023-03-14T13:50:59;10.60;;;1.35;;
1446;SDS011;717;51.522;7.266;2023-03-14T13:53:30;12.48;;;1.88;;
1446;SDS011;717;51.522;7.266;2023-03-14T13:56:01;8.43;;;1.38;;
1446;SDS011;717;51.522;7.266;2023-03-14T13:58:31;8.65;;;1.50;;
1446;SDS011;717;51.522;7.266;2023-03-14T14:01:04;9.73;;;1.67;;
1446;SDS011;717;51.522;7.266;2023-03-14T14:03:38;11.88;;;2.10;;
1446;SDS011;717;51.522;7.266;2023-03-14T14:06:16;12.50;;;1.95;;
1446;SDS011;717;51.522;7.266;2023-03-14T14:08:51;7.53;;;1.50;;
1446;SDS011;717;51.522;7.266;2023-03-14T14:11:22;6.78;;;1.45;;
1446;SDS011;717;51.522;7.266;2023-03-14T14:13:59;11.98;;;1.55;;
1446;SDS011;717;51.522;7.266;2023-03-14T14:16:28;9.40;;;1.65;;
1446;SDS011;717;51.522;7.266;2023-03-14T14:18:58;10.65;;;1.65;;
1446;SDS011;717;51.522;7.266;2023-03-14T14:21:31;10.60;;;1.85;;
1446;SDS011;717;51.522;7.266;2023-03-14T14:23:59;9.57;;;2.00;;
1446;SDS011;717;51.522;7.266;2023-03-14T14:26:28;8.73;;;1.48;;
1446;SDS011;717;51.522;7.266;2023-03-14T14:29:01;6.35;;;1.17;;
1446;SDS011;717;51.522;7.266;2023-03-14T14:31:32;13.07;;;1.77;;
1446;SDS011;717;51.522;7.266;2023-03-14T14:34:01;10.40;;;1.60;;
1446;SDS011;717;51.522;7.266;2023-03-14T14:36:36;6.82;;;1.40;;
1446;SDS011;717;51.522;7.266;2023-03-14T14:39:09;8.65;;;1.52;;
1446;SDS011;717;51.522;7.266;2023-03-14T14:41:44;10.02;;;1.33;;
1446;SDS011;717;51.522;7.266;2023-03-14T14:44:17;8.02;;;1.35;;
1446;SDS011;717;51.522;7.266;2023-03-14T14:46:49;6.45;;;1.50;;
1446;SDS011;717;51.522;7.266;2023-03-14T14:49:19;6.10;;;1.30;;
1446;SDS011;717;51.522;7.266;2023-03-14T14:51:50;5.68;;;1.20;;
1446;SDS011;717;51.522;7.266;2023-03-14T14:54:33;5.93;;;0.95;;
1446;SDS011;717;51.522;7.266;2023-03-14T14:57:03;8.65;;;1.23;;
1446;SDS011;717;51.522;7.266;2023-03-14T14:59:41;5.63;;;1.35;;
1446;SDS011;717;51.522;7.266;2023-03-14T15:02:16;9.60;;;1.38;;
1446;SDS011;717;51.522;7.266;2023-03-14T15:05:00;6.10;;;0.95;;
1446;SDS011;717;51.522;7.266;2023-03-14T15:07:31;11.00;;;1.30;;
1446;SDS011;717;51.522;7.266;2023-03-14T15:10:00;5.10;;;0.73;;
1446;SDS011;717;51.522;7.266;2023-03-14T15:12:28;9.35;;;1.20;;
1446;SDS011;717;51.522;7.266;2023-03-14T15:14:57;6.10;;;1.40;;
1446;SDS011;717;51.522;7.266;2023-03-14T15:17:25;6.38;;;1.00;;
1446;SDS011;717;51.522;7.266;2023-03-14T15:19:54;6.18;;;1.05;;
1446;SDS011;717;51.522;7.266;2023-03-14T15:22:23;6.60;;;0.98;;
1446;SDS011;717;51.522;7.266;2023-03-14T15:24:55;8.70;;;1.23;;
1446;SDS011;717;51.522;7.266;2023-03-14T15:27:23;6.13;;;1.17;;
1446;SDS011;717;51.522;7.266;2023-03-14T15:29:53;4.78;;;1.10;;
1446;SDS011;717;51.522;7.266;2023-03-14T15:32:21;7.22;;;1.30;;
1446;SDS011;717;51.522;7.266;2023-03-14T15:34:52;7.15;;;1.00;;
1446;SDS011;717;51.522;7.266;2023-03-14T15:37:22;7.45;;;1.05;;
1446;SDS011;717;51.522;7.266;2023-03-14T15:39:51;4.82;;;0.90;;
1446;SDS011;717;51.522;7.266;2023-03-14T15:42:25;6.78;;;1.00;;
1446;SDS011;717;51.522;7.266;2023-03-14T15:44:54;7.18;;;1.17;;
1446;SDS011;717;51.522;7.266;2023-03-14T15:47:23;4.88;;;1.00;;
1446;SDS011;717;51.522;7.266;2023-03-14T15:49:52;5.53;;;1.10;;
1446;SDS011;717;51.522;7.266;2023-03-14T15:52:21;4.00;;;0.73;;
1446;SDS011;717;51.522;7.266;2023-03-14T15:54:49;6.13;;;1.20;;
1446;SDS011;717;51.522;7.266;2023-03-14T15:57:18;5.00;;;1.38;;
1446;SDS011;717;51.522;7.266;2023-03-14T15:59:49;5.00;;;1.10;;
1446;SDS011;717;51.522;7.266;2023-03-14T16:02:18;3.22;;;0.68;;
1446;SDS011;717;51.522;7.266;2023-03-14T16:04:47;4.10;;;0.60;;
1446;SDS011;717;51.522;7.266;2023-03-14T16:07:15;3.88;;;0.93;;